Emblem, WY

12:05 AM MDT on July 31, 2014 (GMT -0600)
South Big Horn County (KGEY) Elev 3934 ft | 44.52 °N, 108.08 °W | Change Station

Current weather conditions updated 1 hour ago

Clear
Clear
70 °F
Feels Like 70 °F
N
6
Wind Variable Wind from ESE

Today is forecast to be Warmer than yesterday.

Today
High -- | Low -- °F
--% Chance of Precip.
Yesterday
High -- | Low -- °F
Precip. -- in
5:59 AM 8:39 PM
Waxing Crescent, 16% visible
Pressure 30.09 in
Visibility 10.0 miles
Clouds Clear
Dew Point 45 °F
Humidity 41%
Rainfall 0.00 in
Snow Depth Not available.
UV 0 out of 12
Pollen 6.60 out of 12
Air Quality Not available.
Flu Activity Not available.
METAR KGEY 310453Z AUTO 12005KT 10SM CLR 21/07 A3018 RMK AO2 SLP187 T02110072

More Conditions Fewer Conditions

Pressure 30.09 in
Visibility 10.0 miles
Clouds Clear
Dew Point 45 °F
Humidity 41%
Rainfall 0.00 in
Snow Depth Not available.
UV 0 out of 12
Pollen 6.60 out of 12
Air Quality Not available.
Flu Activity Not available.
METAR KGEY 310453Z AUTO 12005KT 10SM CLR 21/07 A3018 RMK AO2 SLP187 T02110072

More Conditions Fewer Conditions

10-Day Weather Forecast

Almanac

Astronomy

Jul. 31, 2014 Rise Set
Actual Time 5:59 AM MDT 8:39 PM MDT
Civil Twilight 5:25 AM MDT 9:13 PM MDT
Nautical Twilight 4:43 AM MDT 9:55 PM MDT
Astronomical Twilight 3:54 AM MDT 10:43 PM MDT
Moon 10:42 AM MDT 10:40 PM MDT
Length of Visible Light 15h 47m
Length of Day
14h 40m
Tomorrow will be 2m 20s shorter.
Waxing Crescent, 16% of the Moon is Illuminated
Today
Waxing Crescent
Aug 3
First Quarter
Aug 10
Full
Aug 17
Last Quarter
Aug 25
New

Today's Extremes

State Highs State Lows

Community

WunderPhotos

Upload Photos

1,739,251 photos uploaded!

Nearby

Snow Depth

Station Depth Elevation
Base Camp 0 in 7030 ft
Lewis Lake Divide 0 in 7850 ft
Gros Ventre Summit 0 in 8750 ft
Kendall R.S. 0 in 7740 ft
New Fork Lake 0 in 8340 ft

Earthquake Activity

City Distance Mag. Time & Date
No recent earthquake activity has been reported nearby.
Minimum magnitude displayed is 2.5.

Coastal Water Temperatures

Place Temperature
No Stations Reporting

Nearby Weather Stations

Station Location Temp. Dew Point Humidity Wind Precip. Elev Updated Type
West Basin, BASIN, WY 63.7 °F 48 °F 56% West  at  0.0 mph 0.00 in / hr 3873 ft 12:03 AM MDT Normal
Basin, WY 64.0 °F 51 °F 63% East  at  0.0 mph 0.00 in / hr 4537 ft 11:58 PM MDT Normal

Show More Stations Show Fewer Stations